createdAt,value
2019-06-07T00:00:51.298Z,16.77
2019-06-07T00:03:27.446Z,18.60
2019-06-07T00:05:52.049Z,18.30
2019-06-07T00:08:27.846Z,18.90
2019-06-07T00:10:52.666Z,13.93
2019-06-07T00:13:22.101Z,18.20
2019-06-07T00:15:51.595Z,16.60
2019-06-07T00:18:25.993Z,17.90
2019-06-07T00:20:52.294Z,19.83
2019-06-07T00:23:22.920Z,19.60
2019-06-07T00:25:52.642Z,17.40
2019-06-07T00:28:22.107Z,20.00
2019-06-07T00:30:52.737Z,18.57
2019-06-07T00:33:24.757Z,18.37
2019-06-07T00:35:53.647Z,18.50
2019-06-07T00:38:23.085Z,19.30
2019-06-07T00:40:52.539Z,13.77
2019-06-07T00:43:28.010Z,16.00
2019-06-07T00:45:53.204Z,18.03
2019-06-07T00:48:31.292Z,18.90
2019-06-07T00:50:53.869Z,17.80
2019-06-07T00:53:31.771Z,18.53
2019-06-07T00:55:54.512Z,17.80
2019-06-07T00:58:27.469Z,18.50
2019-06-07T01:00:55.281Z,16.90
2019-06-07T01:03:25.880Z,18.23
2019-06-07T01:05:55.572Z,18.77
2019-06-07T01:08:29.879Z,18.83
2019-06-07T01:10:56.282Z,15.40
2019-06-07T01:13:26.968Z,17.90
2019-06-07T01:15:56.559Z,17.50
2019-06-07T01:18:37.384Z,16.37
2019-06-07T01:21:20.622Z,16.17
2019-06-07T01:24:08.257Z,16.10
2019-06-07T01:26:21.869Z,17.80
2019-06-07T01:28:50.311Z,14.50
2019-06-07T01:31:22.231Z,17.60
2019-06-07T01:33:51.509Z,18.20
2019-06-07T01:36:22.418Z,16.10
2019-06-07T01:38:52.403Z,17.73
2019-06-07T01:41:25.273Z,16.90
2019-06-07T01:43:52.997Z,17.80
2019-06-07T01:46:25.339Z,16.80
2019-06-07T01:48:53.676Z,16.63
2019-06-07T01:51:24.441Z,16.50
2019-06-07T01:54:41.386Z,15.23
2019-06-07T01:56:29.253Z,19.50
2019-06-07T01:58:56.870Z,18.57
2019-06-07T02:01:29.701Z,18.40
2019-06-07T02:03:57.493Z,17.27
2019-06-07T02:06:31.375Z,18.70
2019-06-07T02:08:58.279Z,18.63
2019-06-07T02:11:29.415Z,19.40
2019-06-07T02:13:58.922Z,18.00
2019-06-07T02:16:32.032Z,19.60
2019-06-07T02:19:02.097Z,18.70
2019-06-07T02:21:34.084Z,18.93
2019-06-07T02:24:01.983Z,18.20
2019-06-07T02:26:32.617Z,20.97
2019-06-07T02:29:02.305Z,21.50
2019-06-07T02:31:38.615Z,23.30
2019-06-07T02:34:02.903Z,21.40
2019-06-07T02:36:39.236Z,22.53
2019-06-07T02:39:05.088Z,19.60
2019-06-07T02:41:39.207Z,22.40
2019-06-07T02:44:06.141Z,21.63
2019-06-07T02:46:45.824Z,21.23
2019-06-07T02:49:06.804Z,21.60
2019-06-07T02:51:41.480Z,18.93
2019-06-07T02:54:07.460Z,17.60
2019-06-07T02:56:54.120Z,17.63
2019-06-07T02:59:08.128Z,17.57
2019-06-07T03:01:41.375Z,19.97
2019-06-07T03:04:09.732Z,18.50
2019-06-07T03:06:43.789Z,18.07
2019-06-07T03:09:12.110Z,17.97
2019-06-07T03:11:45.449Z,15.00
2019-06-07T03:14:18.435Z,15.87
2019-06-07T03:17:00.483Z,12.90
2019-06-07T03:19:37.341Z,12.83
2019-06-07T03:22:05.708Z,12.90
2019-06-07T03:24:41.711Z,12.93
2019-06-07T03:27:34.206Z,12.10
2019-06-07T03:29:41.159Z,13.07
2019-06-07T03:32:10.503Z,12.60
2019-06-07T03:34:43.545Z,13.33
2019-06-07T03:37:11.148Z,13.20
2019-06-07T03:39:41.185Z,12.17
2019-06-07T03:42:10.845Z,11.83
2019-06-07T03:44:41.605Z,12.07
2019-06-07T03:47:11.389Z,13.17
2019-06-07T03:49:42.487Z,14.10
2019-06-07T03:52:12.030Z,12.43
2019-06-07T03:54:41.480Z,12.17
2019-06-07T03:57:10.943Z,16.63
2019-06-07T03:59:41.583Z,15.30
2019-06-07T04:02:11.309Z,18.13
2019-06-07T04:04:40.746Z,19.80
2019-06-07T04:07:10.203Z,18.93
2019-06-07T04:09:42.865Z,19.80
2019-06-07T04:12:10.856Z,21.63
2019-06-07T04:14:42.536Z,21.40
2019-06-07T04:17:11.695Z,27.90
2019-06-07T04:19:43.299Z,14.83
2019-06-07T04:22:12.368Z,25.50
2019-06-07T04:24:42.204Z,25.07
2019-06-07T04:27:11.671Z,20.23
2019-06-07T04:30:04.865Z,27.63
2019-06-07T04:32:33.731Z,27.37
2019-06-07T04:35:02.875Z,26.90
2019-06-07T04:37:34.160Z,27.57
2019-06-07T04:40:08.850Z,27.90
2019-06-07T04:42:44.943Z,20.90
2019-06-07T04:45:32.938Z,29.20
2019-06-07T04:47:46.197Z,27.33
2019-06-07T04:50:15.799Z,25.87
2019-06-07T04:52:45.877Z,31.20
2019-06-07T04:55:15.504Z,31.97
2019-06-07T04:57:44.969Z,32.10
2019-06-07T05:00:46.764Z,29.47
2019-06-07T05:02:47.503Z,31.53
2019-06-07T05:05:16.944Z,26.40
2019-06-07T05:07:46.520Z,32.50
2019-06-07T05:10:15.917Z,15.27
2019-06-07T05:12:45.411Z,31.13
2019-06-07T05:15:15.009Z,32.83
2019-06-07T05:17:45.220Z,31.03
2019-06-07T05:20:16.090Z,34.67
2019-06-07T05:22:45.739Z,32.80
2019-06-07T05:25:16.317Z,30.03
2019-06-07T05:27:46.961Z,30.27
2019-06-07T05:31:03.105Z,32.10
2019-06-07T05:33:08.913Z,30.20
2019-06-07T05:35:41.726Z,30.27
2019-06-07T05:38:10.402Z,32.90
2019-06-07T05:40:48.646Z,29.80
2019-06-07T05:43:39.334Z,33.63
2019-06-07T05:46:06.378Z,34.20
2019-06-07T05:48:40.295Z,29.00
2019-06-07T05:51:07.997Z,30.83
2019-06-07T05:53:38.992Z,30.80
2019-06-07T05:56:08.903Z,24.47
2019-06-07T05:58:41.882Z,27.53
2019-06-07T06:03:43.303Z,15.40
2019-06-07T06:06:12.176Z,25.43
2019-06-07T06:08:42.594Z,26.13
2019-06-07T06:11:12.923Z,25.30
2019-06-07T06:14:01.449Z,28.23
2019-06-07T06:16:13.615Z,28.30
2019-06-07T06:18:47.057Z,26.53
2019-06-07T06:21:19.232Z,17.07
2019-06-07T06:23:48.123Z,28.00
2019-06-07T06:26:16.693Z,26.07
2019-06-07T06:28:49.752Z,19.57
2019-06-07T06:31:21.117Z,18.50
2019-06-07T06:33:50.578Z,27.47
2019-06-07T06:36:20.513Z,23.00
2019-06-07T06:38:51.544Z,23.60
2019-06-07T06:41:21.267Z,22.70
2019-06-07T06:43:52.624Z,14.43
2019-06-07T06:46:38.137Z,26.00
2019-06-07T06:48:55.337Z,28.53
2019-06-07T06:51:24.382Z,23.57
2019-06-07T06:53:53.845Z,22.87
2019-06-07T06:56:24.463Z,22.43
2019-06-07T06:59:35.349Z,15.23
2019-06-07T07:01:25.225Z,26.60
2019-06-07T07:04:11.458Z,19.93
2019-06-07T07:06:27.548Z,19.57
2019-06-07T07:08:58.603Z,15.27
2019-06-07T07:11:28.047Z,26.83
2019-06-07T07:13:57.503Z,26.73
2019-06-07T07:16:26.983Z,22.70
2019-06-07T07:18:56.632Z,25.83
2019-06-07T07:21:26.089Z,30.47
2019-06-07T07:24:19.579Z,29.90
2019-06-07T07:26:26.715Z,18.33
2019-06-07T07:28:57.773Z,30.03
2019-06-07T07:31:27.530Z,28.73
2019-06-07T07:34:29.007Z,27.73
2019-06-07T07:36:38.820Z,22.80
2019-06-07T07:39:04.507Z,24.47
2019-06-07T07:41:30.560Z,27.47
2019-06-07T07:44:06.599Z,28.00
2019-06-07T07:46:31.264Z,14.10
2019-06-07T07:49:00.724Z,28.30
2019-06-07T07:51:30.181Z,24.60
2019-06-07T07:54:10.010Z,25.40
2019-06-07T07:56:30.804Z,23.17
2019-06-07T07:59:02.388Z,16.40
2019-06-07T08:01:31.506Z,19.83
2019-06-07T08:04:01.070Z,19.70
2019-06-07T08:06:30.503Z,18.77
2019-06-07T08:08:59.986Z,12.93
2019-06-07T08:11:29.463Z,29.07
2019-06-07T08:13:59.016Z,14.63
2019-06-07T08:16:28.505Z,20.90
2019-06-07T08:19:03.596Z,19.47
2019-06-07T08:21:31.253Z,16.03
2019-06-07T08:24:04.535Z,27.87
2019-06-07T08:26:32.051Z,26.50
2019-06-07T08:29:02.963Z,28.10
2019-06-07T08:31:32.815Z,15.70
2019-06-07T08:34:02.327Z,27.07
2019-06-07T08:36:41.966Z,26.30
2019-06-07T08:39:07.214Z,21.57
2019-06-07T08:41:34.230Z,22.10
2019-06-07T08:44:22.225Z,19.77
2019-06-07T08:46:36.417Z,20.80
2019-06-07T08:49:06.075Z,20.93
2019-06-07T08:51:35.517Z,19.13
2019-06-07T08:54:21.552Z,23.73
2019-06-07T08:56:36.182Z,26.77
2019-06-07T08:59:11.107Z,26.63
2019-06-07T09:01:37.082Z,24.37
2019-06-07T09:04:10.765Z,25.53
2019-06-07T09:07:02.302Z,25.50
2019-06-07T09:09:09.789Z,23.60
2019-06-07T09:11:39.276Z,20.53
2019-06-07T09:14:09.425Z,14.60
2019-06-07T09:16:39.136Z,25.50
2019-06-07T09:19:10.851Z,22.20
2019-06-07T09:21:39.771Z,23.87
2019-06-07T09:24:11.557Z,17.67
2019-06-07T09:26:40.413Z,26.03
2019-06-07T09:29:12.061Z,31.00
2019-06-07T09:31:52.803Z,27.30
2019-06-07T09:34:15.088Z,25.53
2019-06-07T09:36:44.893Z,29.53
2019-06-07T09:39:14.442Z,24.40
2019-06-07T09:41:49.534Z,25.37
2019-06-07T09:44:24.967Z,24.97
2019-06-07T09:46:46.310Z,24.13
2019-06-07T09:49:28.518Z,19.60
2019-06-07T09:51:47.180Z,17.10
2019-06-07T09:55:02.575Z,13.53
2019-06-07T09:56:47.835Z,15.27
2019-06-07T09:59:17.334Z,15.70
2019-06-07T10:01:46.799Z,15.70
2019-06-07T10:04:30.244Z,24.50
2019-06-07T10:06:47.443Z,22.00
2019-06-07T10:11:48.225Z,16.20
2019-06-07T10:14:17.658Z,15.73
2019-06-07T10:16:48.018Z,17.43
2019-06-07T10:19:17.980Z,20.87
2019-06-07T10:21:47.405Z,14.67
2019-06-07T10:24:16.849Z,14.70
2019-06-07T10:26:46.341Z,15.27
2019-06-07T10:29:15.794Z,14.80
2019-06-07T10:31:45.247Z,25.07
2019-06-07T10:34:14.750Z,17.23
2019-06-07T10:36:44.217Z,18.33
2019-06-07T10:39:13.804Z,22.47
2019-06-07T10:41:43.279Z,22.37
2019-06-07T10:44:12.748Z,24.00
2019-06-07T10:46:42.225Z,24.00
2019-06-07T10:49:12.203Z,19.20
2019-06-07T10:51:41.820Z,25.97
2019-06-07T10:54:24.129Z,23.60
2019-06-07T10:56:42.711Z,20.30
2019-06-07T10:59:13.597Z,15.40
2019-06-07T11:01:43.171Z,15.23
2019-06-07T11:04:13.834Z,23.43
2019-06-07T11:06:43.372Z,22.50
2019-06-07T11:09:14.140Z,23.50
2019-06-07T11:11:43.808Z,15.80
2019-06-07T11:14:14.619Z,24.83
2019-06-07T11:16:44.180Z,17.17
2019-06-07T11:19:16.371Z,23.47
2019-06-07T11:21:44.839Z,24.13
2019-06-07T11:24:14.453Z,21.87
2019-06-07T11:26:43.943Z,15.27
2019-06-07T11:29:14.916Z,16.90
2019-06-07T11:31:47.392Z,15.73
2019-06-07T11:34:15.835Z,19.60
2019-06-07T11:36:45.269Z,22.27
2019-06-07T11:39:15.168Z,14.33
2019-06-07T11:41:44.753Z,16.57
2019-06-07T11:44:15.005Z,16.30
2019-06-07T11:46:44.597Z,15.07
2019-06-07T11:49:19.823Z,15.07
2019-06-07T11:51:45.335Z,15.30
2019-06-07T11:54:16.213Z,17.30
2019-06-07T11:56:45.873Z,13.97
2019-06-07T11:59:18.403Z,13.57
2019-06-07T12:01:47.860Z,18.40
2019-06-07T12:04:32.480Z,19.33
2019-06-07T12:06:51.359Z,18.00
2019-06-07T12:09:20.813Z,14.40
2019-06-07T12:11:50.282Z,17.60
2019-06-07T12:14:19.721Z,19.20
2019-06-07T12:16:49.182Z,22.07
2019-06-07T12:19:19.795Z,20.80
2019-06-07T12:21:49.317Z,17.10
2019-06-07T12:24:19.799Z,18.43
2019-06-07T12:26:50.010Z,21.73
2019-06-07T12:29:19.474Z,23.63
2019-06-07T12:31:48.975Z,19.80
2019-06-07T12:34:19.507Z,15.27
2019-06-07T12:36:49.103Z,17.97
2019-06-07T12:39:18.586Z,15.00
2019-06-07T12:41:48.081Z,16.60
2019-06-07T12:44:18.583Z,18.00
2019-06-07T12:46:48.192Z,18.30
2019-06-07T12:49:17.640Z,18.47
2019-06-07T12:51:47.120Z,20.50
2019-06-07T12:54:17.596Z,13.97
2019-06-07T12:56:47.158Z,19.63
2019-06-07T12:59:17.862Z,15.20
2019-06-07T13:01:47.440Z,15.13
2019-06-07T13:04:16.915Z,18.70
2019-06-07T13:06:46.379Z,17.30
2019-06-07T13:09:15.888Z,15.50
2019-06-07T13:11:45.372Z,18.97
2019-06-07T13:14:16.016Z,17.80
2019-06-07T13:16:45.584Z,14.30
2019-06-07T13:19:16.310Z,18.97
2019-06-07T13:21:45.911Z,20.20
2019-06-07T13:24:16.312Z,15.33
2019-06-07T13:26:45.815Z,16.87
2019-06-07T13:29:16.425Z,16.07
2019-06-07T13:31:45.991Z,17.17
2019-06-07T13:34:16.090Z,15.63
2019-06-07T13:36:45.739Z,14.70
2019-06-07T13:39:15.191Z,16.40
2019-06-07T13:41:44.661Z,14.00
2019-06-07T13:44:14.111Z,16.63
2019-06-07T13:46:43.595Z,14.83
2019-06-07T13:49:14.304Z,13.53
2019-06-07T13:51:43.831Z,14.27
2019-06-07T13:54:13.317Z,13.60
2019-06-07T13:57:00.716Z,16.33
2019-06-07T13:59:14.381Z,14.27
2019-06-07T14:01:43.893Z,11.90
2019-06-07T14:04:13.326Z,12.33
2019-06-07T14:06:42.864Z,12.53
2019-06-07T14:09:12.319Z,14.33
2019-06-07T14:11:50.661Z,15.60
2019-06-07T14:14:12.985Z,12.87
2019-06-07T14:16:42.441Z,11.30
2019-06-07T14:19:11.915Z,11.53
2019-06-07T14:21:41.359Z,13.03
2019-06-07T14:24:10.835Z,12.47
2019-06-07T14:26:41.994Z,12.67
2019-06-07T14:29:11.362Z,12.33
2019-06-07T14:31:40.846Z,13.10
2019-06-07T14:34:10.351Z,11.73
2019-06-07T14:36:39.888Z,11.63
2019-06-07T14:39:09.340Z,11.27
2019-06-07T14:41:38.882Z,12.20
2019-06-07T14:44:08.353Z,11.90
2019-06-07T14:46:37.856Z,13.00
2019-06-07T14:49:07.279Z,14.10
2019-06-07T14:51:36.862Z,14.60
2019-06-07T14:54:06.367Z,12.67
2019-06-07T14:56:35.851Z,13.70
2019-06-07T14:59:06.496Z,12.57
2019-06-07T15:01:36.005Z,12.13
2019-06-07T15:04:05.795Z,13.10
2019-06-07T15:06:35.278Z,11.90
2019-06-07T15:09:07.480Z,12.90
2019-06-07T15:11:36.927Z,11.10
2019-06-07T15:14:06.489Z,11.47
2019-06-07T15:16:35.954Z,10.73
2019-06-07T15:19:05.463Z,11.67
2019-06-07T15:21:35.153Z,13.40
2019-06-07T15:24:05.040Z,12.20
2019-06-07T15:26:34.657Z,12.40
2019-06-07T15:29:04.316Z,13.23
2019-06-07T15:31:34.567Z,13.43
2019-06-07T15:34:04.969Z,10.30
2019-06-07T15:36:36.412Z,10.10
2019-06-07T15:39:08.054Z,9.90
2019-06-07T15:41:37.988Z,12.60
2019-06-07T15:44:08.722Z,12.90
2019-06-07T15:46:38.233Z,12.00
2019-06-07T15:49:08.059Z,10.23
2019-06-07T15:51:38.662Z,12.80
2019-06-07T15:54:08.239Z,11.70
2019-06-07T15:56:39.003Z,10.97
2019-06-07T15:59:08.737Z,13.10
2019-06-07T16:01:39.438Z,11.13
2019-06-07T16:04:09.093Z,10.93
2019-06-07T16:06:40.285Z,12.80
2019-06-07T16:09:10.282Z,10.87
2019-06-07T16:11:41.212Z,10.10
2019-06-07T16:14:11.106Z,11.20
2019-06-07T16:16:41.401Z,11.40
2019-06-07T16:19:10.951Z,12.90
2019-06-07T16:21:41.522Z,10.87
2019-06-07T16:24:11.149Z,11.17
2019-06-07T16:26:40.576Z,10.90
2019-06-07T16:29:10.139Z,11.40
2019-06-07T16:31:40.957Z,9.73
2019-06-07T16:34:10.568Z,11.90
2019-06-07T16:36:40.391Z,11.80
2019-06-07T16:39:10.335Z,11.50
2019-06-07T16:41:40.515Z,12.30
2019-06-07T16:44:10.061Z,10.97
2019-06-07T16:46:40.626Z,10.43
2019-06-07T16:49:10.175Z,9.77
2019-06-07T16:51:41.160Z,9.90
2019-06-07T16:54:11.253Z,11.63
2019-06-07T16:56:44.417Z,10.10
2019-06-07T16:59:12.087Z,10.20
2019-06-07T17:01:41.586Z,10.00
2019-06-07T17:04:11.167Z,10.63
2019-06-07T17:06:41.684Z,11.00
2019-06-07T17:09:11.286Z,10.60
2019-06-07T17:11:40.766Z,10.30
2019-06-07T17:14:10.206Z,10.10
2019-06-07T17:16:40.893Z,9.80
2019-06-07T17:19:10.551Z,10.17
2019-06-07T17:21:41.225Z,9.53
2019-06-07T17:24:10.716Z,9.90
2019-06-07T17:26:41.602Z,11.20
2019-06-07T17:29:11.297Z,9.70
2019-06-07T17:31:41.859Z,9.57
2019-06-07T17:34:11.553Z,10.17
2019-06-07T17:36:42.250Z,9.13
2019-06-07T17:39:11.996Z,10.50
2019-06-07T17:41:52.484Z,10.57
2019-06-07T17:44:12.949Z,10.37
2019-06-07T17:46:43.479Z,10.53
2019-06-07T17:49:13.007Z,11.57
2019-06-07T17:51:44.026Z,9.70
2019-06-07T17:54:13.636Z,10.87
2019-06-07T17:56:44.461Z,10.70
2019-06-07T17:59:14.060Z,11.03
2019-06-07T18:02:05.874Z,10.30
2019-06-07T18:04:14.692Z,11.00
2019-06-07T18:06:45.486Z,10.43
2019-06-07T18:09:15.205Z,11.33
2019-06-07T18:11:45.824Z,10.80
2019-06-07T18:14:15.509Z,10.83
2019-06-07T18:16:46.404Z,11.47
2019-06-07T18:19:15.989Z,10.90
2019-06-07T18:21:45.460Z,11.60
2019-06-07T18:24:14.961Z,10.43
2019-06-07T18:26:44.883Z,12.70
2019-06-07T18:29:14.349Z,11.27
2019-06-07T18:31:43.842Z,11.23
2019-06-07T18:34:13.274Z,11.23
2019-06-07T18:36:42.748Z,11.30
2019-06-07T18:39:12.262Z,13.30
2019-06-07T18:41:41.752Z,11.60
2019-06-07T18:44:21.056Z,12.33
2019-06-07T18:46:42.373Z,12.40
2019-06-07T18:49:11.878Z,13.63
2019-06-07T18:51:41.336Z,12.00
2019-06-07T18:54:10.799Z,11.70
2019-06-07T18:56:40.271Z,11.20
2019-06-07T18:59:09.759Z,12.47
2019-06-07T19:01:39.201Z,12.33
2019-06-07T19:04:28.053Z,13.63
2019-06-07T19:06:58.425Z,12.37
2019-06-07T19:09:27.947Z,10.93
2019-06-07T19:11:57.423Z,9.97
2019-06-07T19:14:36.732Z,11.97
2019-06-07T19:16:58.057Z,12.77
2019-06-07T19:19:27.527Z,11.97
2019-06-07T19:21:58.280Z,12.33
2019-06-07T19:24:27.810Z,12.13
2019-06-07T19:26:58.629Z,11.93
2019-06-07T19:29:28.222Z,12.10
2019-06-07T19:31:58.850Z,11.67
2019-06-07T19:34:28.816Z,10.93
2019-06-07T19:36:58.251Z,13.27
2019-06-07T19:39:27.691Z,11.80
2019-06-07T19:41:58.042Z,11.90
2019-06-07T19:44:27.648Z,10.67
2019-06-07T19:46:58.444Z,10.43
2019-06-07T19:49:28.339Z,10.40
2019-06-07T19:51:59.021Z,12.20
2019-06-07T19:54:28.853Z,11.60
2019-06-07T19:56:59.434Z,12.20
2019-06-07T19:59:28.982Z,14.03
2019-06-07T20:01:59.904Z,16.33
2019-06-07T20:04:29.628Z,18.17
2019-06-07T20:07:00.269Z,14.70
2019-06-07T20:09:31.212Z,17.13
2019-06-07T20:12:00.879Z,15.83
2019-06-07T20:14:30.314Z,15.97
2019-06-07T20:17:01.280Z,16.60
2019-06-07T20:19:30.906Z,17.80
2019-06-07T20:22:01.042Z,14.03
2019-06-07T20:24:32.695Z,14.23
2019-06-07T20:27:02.319Z,16.00
2019-06-07T20:29:31.862Z,14.03
2019-06-07T20:32:02.503Z,17.70
2019-06-07T20:34:32.090Z,16.53
2019-06-07T20:37:05.030Z,15.10
2019-06-07T20:39:32.769Z,12.20
2019-06-07T20:42:03.378Z,14.03
2019-06-07T20:44:32.956Z,15.00
2019-06-07T20:47:02.419Z,12.20
2019-06-07T20:49:31.960Z,16.77
2019-06-07T20:52:03.050Z,28.43
2019-06-07T20:54:32.618Z,18.00
2019-06-07T20:57:02.634Z,21.63
2019-06-07T20:59:32.130Z,20.20
2019-06-07T21:02:02.965Z,19.50
2019-06-07T21:04:32.556Z,15.67
2019-06-07T21:07:03.346Z,18.20
2019-06-07T21:09:32.743Z,18.93
2019-06-07T21:12:02.250Z,15.70
2019-06-07T21:14:31.706Z,15.27
2019-06-07T21:17:02.125Z,15.57
2019-06-07T21:19:31.874Z,18.23
2019-06-07T21:22:02.377Z,18.80
2019-06-07T21:24:31.882Z,14.97
2019-06-07T21:27:01.712Z,18.37
2019-06-07T21:29:32.503Z,18.80
2019-06-07T21:32:03.201Z,19.30
2019-06-07T21:34:33.608Z,21.20
2019-06-07T21:37:03.790Z,19.90
2019-06-07T21:39:33.936Z,18.93
2019-06-07T21:42:04.198Z,18.17
2019-06-07T21:44:33.775Z,18.90
2019-06-07T21:47:04.224Z,16.37
2019-06-07T21:49:33.886Z,22.03
2019-06-07T21:52:04.377Z,19.83
2019-06-07T21:54:33.862Z,15.27
2019-06-07T21:57:03.311Z,18.00
2019-06-07T21:59:32.784Z,21.20
2019-06-07T22:02:03.230Z,16.30
2019-06-07T22:04:32.824Z,22.83
2019-06-07T22:07:03.290Z,19.57
2019-06-07T22:09:32.800Z,14.57
2019-06-07T22:12:04.354Z,14.47
2019-06-07T22:14:33.731Z,18.53
2019-06-07T22:17:04.071Z,15.90
2019-06-07T22:19:33.502Z,14.40
2019-06-07T22:22:03.794Z,13.53
2019-06-07T22:24:34.154Z,13.37
2019-06-07T22:27:04.837Z,13.63
2019-06-07T22:29:34.457Z,13.27
2019-06-07T22:32:03.952Z,13.07
2019-06-07T22:34:33.370Z,13.67
2019-06-07T22:37:02.870Z,13.53
2019-06-07T22:39:32.312Z,15.17
2019-06-07T22:42:01.790Z,15.77
2019-06-07T22:44:31.253Z,16.17
2019-06-07T22:47:00.703Z,21.20
2019-06-07T22:49:30.188Z,15.83
2019-06-07T22:52:08.570Z,14.63
2019-06-07T22:54:30.836Z,15.67
2019-06-07T22:57:01.967Z,15.20
2019-06-07T22:59:31.397Z,15.23
2019-06-07T23:02:00.879Z,16.67
2019-06-07T23:04:30.331Z,14.93
2019-06-07T23:06:59.840Z,17.50
2019-06-07T23:09:29.339Z,18.10
2019-06-07T23:11:58.807Z,19.63
2019-06-07T23:14:28.242Z,16.20
2019-06-07T23:16:57.688Z,17.97
2019-06-07T23:19:27.146Z,20.23
2019-06-07T23:21:56.595Z,21.30
2019-06-07T23:24:26.219Z,17.60
2019-06-07T23:26:55.695Z,18.77
2019-06-07T23:29:25.150Z,20.33
2019-06-07T23:31:54.586Z,16.07
2019-06-07T23:34:24.066Z,15.67
2019-06-07T23:36:53.501Z,15.80
2019-06-07T23:39:22.941Z,14.70
2019-06-07T23:41:52.419Z,15.87
2019-06-07T23:44:21.868Z,18.60
2019-06-07T23:46:51.579Z,18.10
2019-06-07T23:49:22.682Z,19.20
2019-06-07T23:51:52.208Z,18.80
2019-06-07T23:54:22.117Z,20.73
2019-06-07T23:56:51.709Z,20.30
2019-06-07T23:59:22.287Z,19.43
